This is the latest recevied weather packets stored in our database for station/object F4WDE-10. If no packets are shown the sender has not sent any weather packets the latest 10 day(s).
| Time | Temp. | Humidity | Pressure | Rain* | Wind** | Luminosity | Snow |
|---|---|---|---|---|---|---|---|
| 1777847013 | 16.67° C | 79% | 963 hPa | - | - | - | - |
| 1777846112 | 16.11° C | 81% | 963 hPa | - | - | - | - |
| 1777845211 | 16.11° C | 83% | 963 hPa | - | - | - | - |
| 1777844310 | 15.56° C | 85% | 963 hPa | - | - | - | - |
| 1777843409 | 16.11° C | 86% | 963 hPa | - | - | - | - |
| 1777842507 | 16.11° C | 85% | 963 hPa | - | - | - | - |
| 1777841606 | 16.11° C | 86% | 963 hPa | - | - | - | - |
| 1777840705 | 16.11° C | 84% | 963 hPa | - | - | - | - |
| 1777839804 | 16.11° C | 82% | 963 hPa | - | - | - | - |
| 1777838903 | 16.67° C | 80% | 963 hPa | - | - | - | - |
| 1777838002 | 16.67° C | 80% | 963 hPa | - | - | - | - |
| 1777837101 | 16.11° C | 82% | 963 hPa | - | - | - | - |
| 1777836200 | 16.11° C | 84% | 963 hPa | - | - | - | - |
| 1777835299 | 16.11° C | 83% | 963 hPa | - | - | - | - |
| 1777834398 | 16.67° C | 82% | 963 hPa | - | - | - | - |
| 1777833496 | 16.67° C | 81% | 963 hPa | - | - | - | - |
| 1777832595 | 17.22° C | 81% | 963 hPa | - | - | - | - |
| 1777831694 | 17.22° C | 82% | 963 hPa | - | - | - | - |
| 1777830793 | 17.78° C | 78% | 963 hPa | - | - | - | - |
| 1777829891 | 17.78° C | 76% | 963 hPa | - | - | - | - |
| 1777828990 | 17.78° C | 75% | 963 hPa | - | - | - | - |
| 1777828089 | 17.78° C | 74% | 963 hPa | - | - | - | - |
| 1777827188 | 18.33° C | 70% | 963 hPa | - | - | - | - |
| 1777826287 | 18.33° C | 68% | 963 hPa | - | - | - | - |
| 1777825386 | 18.33° C | 66% | 963 hPa | - | - | - | - |
* Rain since midnight (hover to see other rain measurements)
** Current wind speed in m/s (hover to see current wind gust speed)